createdAt,value
2023-11-24T00:01:35.197Z,9.50
2023-11-24T00:04:01.760Z,9.73
2023-11-24T00:06:28.335Z,10.10
2023-11-24T00:08:54.985Z,9.17
2023-11-24T00:11:21.568Z,8.60
2023-11-24T00:13:48.038Z,8.70
2023-11-24T00:16:14.591Z,8.20
2023-11-24T00:18:41.079Z,8.97
2023-11-24T00:21:07.769Z,9.27
2023-11-24T00:23:34.293Z,9.47
2023-11-24T00:26:00.794Z,8.50
2023-11-24T00:28:27.321Z,7.60
2023-11-24T00:30:53.810Z,7.87
2023-11-24T00:33:20.431Z,9.07
2023-11-24T00:35:46.951Z,8.60
2023-11-24T00:38:13.419Z,9.40
2023-11-24T00:40:39.878Z,7.93
2023-11-24T00:43:06.304Z,8.90
2023-11-24T00:45:32.812Z,9.10
2023-11-24T00:47:59.313Z,7.97
2023-11-24T00:50:25.790Z,9.80
2023-11-24T00:52:52.293Z,8.77
2023-11-24T00:55:18.898Z,8.90
2023-11-24T00:57:45.383Z,7.70
2023-11-24T01:00:12.311Z,9.07
2023-11-24T01:02:38.943Z,8.27
2023-11-24T01:05:05.874Z,8.53
2023-11-24T01:07:32.333Z,7.60
2023-11-24T01:09:58.878Z,8.17
2023-11-24T01:12:25.362Z,8.37
2023-11-24T01:14:51.855Z,8.07
2023-11-24T01:17:18.323Z,7.50
2023-11-24T01:19:44.785Z,7.67
2023-11-24T01:22:11.272Z,8.07
2023-11-24T01:24:37.761Z,7.30
2023-11-24T01:27:04.252Z,8.00
2023-11-24T01:29:30.739Z,7.03
2023-11-24T01:31:57.176Z,7.03
2023-11-24T01:34:23.637Z,7.53
2023-11-24T01:36:50.225Z,7.33
2023-11-24T01:39:16.738Z,6.93
2023-11-24T01:41:43.205Z,6.40
2023-11-24T01:44:09.766Z,7.40
2023-11-24T01:46:36.296Z,6.67
2023-11-24T01:49:03.548Z,6.90
2023-11-24T01:51:30.137Z,8.20
2023-11-24T01:53:56.614Z,7.33
2023-11-24T01:56:23.188Z,6.23
2023-11-24T01:58:49.632Z,6.70
2023-11-24T02:01:16.189Z,7.53
2023-11-24T02:03:42.667Z,5.73
2023-11-24T02:06:11.411Z,5.60
2023-11-24T02:08:37.939Z,6.67
2023-11-24T02:11:04.712Z,6.23
2023-11-24T02:13:31.215Z,6.60
2023-11-24T02:15:58.060Z,6.07
2023-11-24T02:18:24.875Z,6.80
2023-11-24T02:20:51.394Z,5.93
2023-11-24T02:23:17.858Z,5.07
2023-11-24T02:25:44.373Z,5.30
2023-11-24T02:28:10.987Z,6.40
2023-11-24T02:30:37.588Z,6.83
2023-11-24T02:33:04.140Z,5.30
2023-11-24T02:35:30.720Z,6.30
2023-11-24T02:37:57.170Z,6.43
2023-11-24T02:40:23.583Z,5.63
2023-11-24T02:42:50.130Z,5.50
2023-11-24T02:45:16.639Z,7.20
2023-11-24T02:47:43.164Z,5.87
2023-11-24T02:50:09.886Z,6.67
2023-11-24T02:52:36.368Z,6.87
2023-11-24T02:55:02.895Z,6.37
2023-11-24T02:57:29.445Z,6.50
2023-11-24T02:59:55.934Z,6.57
2023-11-24T03:02:22.594Z,6.17
2023-11-24T03:04:49.221Z,6.10
2023-11-24T03:07:15.749Z,5.50
2023-11-24T03:09:42.264Z,5.43
2023-11-24T03:12:08.816Z,6.13
2023-11-24T03:14:35.328Z,5.93
2023-11-24T03:17:01.889Z,5.10
2023-11-24T03:19:28.321Z,6.00
2023-11-24T03:21:54.818Z,6.00
2023-11-24T03:24:21.313Z,6.20
2023-11-24T03:26:47.746Z,5.30
2023-11-24T03:29:14.203Z,6.13
2023-11-24T03:31:40.860Z,6.50
2023-11-24T03:34:07.326Z,5.70
2023-11-24T03:36:33.892Z,6.10
2023-11-24T03:39:00.441Z,5.67
2023-11-24T03:41:26.929Z,5.90
2023-11-24T03:43:53.481Z,6.57
2023-11-24T03:46:19.956Z,6.27
2023-11-24T03:48:46.461Z,5.43
2023-11-24T03:51:14.232Z,6.43
2023-11-24T03:53:40.703Z,5.87
2023-11-24T03:56:07.462Z,4.63
2023-11-24T03:58:33.925Z,5.47
2023-11-24T04:01:00.485Z,5.27
2023-11-24T04:03:27.024Z,5.03
2023-11-24T04:05:53.509Z,4.90
2023-11-24T04:08:20.001Z,6.40
2023-11-24T04:10:46.475Z,5.70
2023-11-24T04:13:13.022Z,5.37
2023-11-24T04:15:39.660Z,6.10
2023-11-24T04:18:06.264Z,6.53
2023-11-24T04:20:32.788Z,5.33
2023-11-24T04:22:59.279Z,5.23
2023-11-24T04:25:25.753Z,5.03
2023-11-24T04:27:52.394Z,6.13
2023-11-24T04:30:18.941Z,5.73
2023-11-24T04:32:45.382Z,6.17
2023-11-24T04:35:11.848Z,5.30
2023-11-24T04:37:38.342Z,4.87
2023-11-24T04:40:05.484Z,5.70
2023-11-24T04:42:32.038Z,5.70
2023-11-24T04:44:58.752Z,6.30
2023-11-24T04:47:25.227Z,5.80
2023-11-24T04:49:51.761Z,5.73
2023-11-24T04:52:18.244Z,5.70
2023-11-24T04:54:44.730Z,6.23
2023-11-24T04:57:11.258Z,5.60
2023-11-24T04:59:41.386Z,6.60
2023-11-24T05:02:07.925Z,6.43
2023-11-24T05:04:37.683Z,5.47
2023-11-24T05:07:04.878Z,5.20
2023-11-24T05:09:31.552Z,4.93
2023-11-24T05:11:58.114Z,6.03
2023-11-24T05:14:24.650Z,5.83
2023-11-24T05:16:51.192Z,5.57
2023-11-24T05:19:17.697Z,4.90
2023-11-24T05:21:44.184Z,5.13
2023-11-24T05:24:11.804Z,5.73
2023-11-24T05:26:38.278Z,5.47
2023-11-24T05:29:04.777Z,5.63
2023-11-24T05:31:31.287Z,6.30
2023-11-24T05:33:57.830Z,6.67
2023-11-24T05:36:24.408Z,7.07
2023-11-24T05:38:50.826Z,7.30
2023-11-24T05:41:17.318Z,6.83
2023-11-24T05:43:44.328Z,6.93
2023-11-24T05:46:10.830Z,6.03
2023-11-24T05:48:37.414Z,6.03
2023-11-24T05:51:04.092Z,5.73
2023-11-24T05:53:30.519Z,5.63
2023-11-24T05:55:57.003Z,5.67
2023-11-24T05:58:23.628Z,5.93
2023-11-24T06:00:50.429Z,6.23
2023-11-24T06:03:17.226Z,6.03
2023-11-24T06:05:43.685Z,5.63
2023-11-24T06:08:10.239Z,6.03
2023-11-24T06:10:36.694Z,6.40
2023-11-24T06:13:03.231Z,6.20
2023-11-24T06:15:29.825Z,5.87
2023-11-24T06:17:56.357Z,6.23
2023-11-24T06:20:22.811Z,5.17
2023-11-24T06:22:49.233Z,5.77
2023-11-24T06:25:16.603Z,6.30
2023-11-24T06:27:44.681Z,5.80
2023-11-24T06:30:11.329Z,6.70
2023-11-24T06:32:37.825Z,10.33
2023-11-24T06:35:05.413Z,7.93
2023-11-24T06:37:31.883Z,6.10
2023-11-24T06:39:58.419Z,6.20
2023-11-24T06:42:24.893Z,6.80
2023-11-24T06:44:51.320Z,5.80
2023-11-24T06:47:17.809Z,6.07
2023-11-24T06:49:44.256Z,6.10
2023-11-24T06:52:10.784Z,6.43
2023-11-24T06:54:37.295Z,6.27
2023-11-24T06:57:03.823Z,6.93
2023-11-24T06:59:30.278Z,6.87
2023-11-24T07:01:56.786Z,6.60
2023-11-24T07:04:23.235Z,7.20
2023-11-24T07:06:49.874Z,7.90
2023-11-24T07:09:16.614Z,7.40
2023-11-24T07:11:43.061Z,7.90
2023-11-24T07:14:09.502Z,7.47
2023-11-24T07:16:36.051Z,11.43
2023-11-24T07:19:02.697Z,8.67
2023-11-24T07:21:29.285Z,8.80
2023-11-24T07:23:55.727Z,8.60
2023-11-24T07:26:22.190Z,9.73
2023-11-24T07:28:48.628Z,9.50
2023-11-24T07:31:15.477Z,10.17
2023-11-24T07:33:42.280Z,9.33
2023-11-24T07:36:09.185Z,8.73
2023-11-24T07:38:36.021Z,8.90
2023-11-24T07:41:02.495Z,9.27
2023-11-24T07:43:28.972Z,8.70
2023-11-24T07:45:55.469Z,8.70
2023-11-24T07:48:21.955Z,7.17
2023-11-24T07:50:48.440Z,8.53
2023-11-24T07:53:15.001Z,7.80
2023-11-24T07:55:42.185Z,7.93
2023-11-24T07:58:08.895Z,7.93
2023-11-24T08:00:36.007Z,8.33
2023-11-24T08:03:02.460Z,10.43
2023-11-24T08:05:28.902Z,7.97
2023-11-24T08:07:55.367Z,6.20
2023-11-24T08:10:21.831Z,5.10
2023-11-24T08:12:48.328Z,5.63
2023-11-24T08:15:14.943Z,6.43
2023-11-24T08:17:41.552Z,3.87
2023-11-24T08:20:08.672Z,5.40
2023-11-24T08:22:35.201Z,4.67
2023-11-24T08:25:01.700Z,3.87
2023-11-24T08:27:28.215Z,4.10
2023-11-24T08:29:54.722Z,4.23
2023-11-24T08:32:21.183Z,4.57
2023-11-24T08:34:48.034Z,4.00
2023-11-24T08:37:14.716Z,4.37
2023-11-24T08:39:41.244Z,3.30
2023-11-24T08:42:07.778Z,3.80
2023-11-24T08:44:35.267Z,5.27
2023-11-24T08:47:02.901Z,5.73
2023-11-24T08:49:29.348Z,4.83
2023-11-24T08:51:55.994Z,9.20
2023-11-24T08:54:22.566Z,10.33
2023-11-24T08:56:49.592Z,11.97
2023-11-24T08:59:16.108Z,13.67
2023-11-24T09:01:42.604Z,14.73
2023-11-24T09:04:09.200Z,21.17
2023-11-24T09:06:35.734Z,24.00
2023-11-24T09:09:02.188Z,14.53
2023-11-24T09:11:28.661Z,19.20
2023-11-24T09:13:55.142Z,17.03
2023-11-24T09:16:22.010Z,14.50
2023-11-24T09:18:48.682Z,12.13
2023-11-24T09:21:15.187Z,12.80
2023-11-24T09:23:42.070Z,12.93
2023-11-24T09:26:08.832Z,14.50
2023-11-24T09:28:35.300Z,13.10
2023-11-24T09:31:01.804Z,12.23
2023-11-24T09:33:28.330Z,10.50
2023-11-24T09:35:54.797Z,14.50
2023-11-24T09:38:21.219Z,12.53
2023-11-24T09:40:47.806Z,12.10
2023-11-24T09:43:14.434Z,10.80
2023-11-24T09:45:41.029Z,12.50
2023-11-24T09:48:08.935Z,8.80
2023-11-24T09:50:35.871Z,2.43
2023-11-24T09:53:02.339Z,3.10
2023-11-24T09:55:28.816Z,3.30
2023-11-24T09:57:59.175Z,2.17
2023-11-24T10:00:26.856Z,11.03
2023-11-24T10:02:57.560Z,4.13
2023-11-24T10:05:24.035Z,8.90
2023-11-24T10:07:50.822Z,6.93
2023-11-24T10:10:24.420Z,8.10
2023-11-24T10:12:54.960Z,2.87
2023-11-24T10:15:21.807Z,3.67
2023-11-24T10:17:48.319Z,7.37
2023-11-24T10:20:15.150Z,1.37
2023-11-24T10:22:41.620Z,1.47
2023-11-24T10:25:10.945Z,2.23
2023-11-24T10:27:37.472Z,5.70
2023-11-24T10:30:04.177Z,22.13
2023-11-24T10:32:30.634Z,22.17
2023-11-24T10:34:57.160Z,1.23
2023-11-24T10:37:24.393Z,3.97
2023-11-24T10:39:52.056Z,12.10
2023-11-24T10:42:20.039Z,3.70
2023-11-24T10:44:52.685Z,0.70
2023-11-24T10:47:26.877Z,1.20
2023-11-24T10:50:00.682Z,5.10
2023-11-24T10:52:29.253Z,3.83
2023-11-24T10:55:06.801Z,4.20
2023-11-24T10:57:33.348Z,2.33
2023-11-24T10:59:59.896Z,0.70
2023-11-24T11:02:26.940Z,1.67
2023-11-24T11:05:12.361Z,0.47
2023-11-24T11:07:49.520Z,0.40
2023-11-24T11:10:16.181Z,0.30
2023-11-24T11:12:46.554Z,0.50
2023-11-24T11:15:15.061Z,0.30
2023-11-24T11:17:41.530Z,0.50
2023-11-24T11:20:09.817Z,0.50
2023-11-24T11:22:37.306Z,0.70
2023-11-24T11:25:25.356Z,0.40
2023-11-24T11:27:51.844Z,0.50
2023-11-24T11:30:24.965Z,0.80
2023-11-24T11:33:03.737Z,0.50
2023-11-24T11:35:30.384Z,0.40
2023-11-24T11:37:59.991Z,0.37
2023-11-24T11:40:26.442Z,0.40
2023-11-24T11:42:54.679Z,0.30
2023-11-24T11:45:21.230Z,0.40
2023-11-24T11:47:51.245Z,0.50
2023-11-24T11:50:18.846Z,0.40
2023-11-24T11:52:45.491Z,0.57
2023-11-24T11:55:12.036Z,0.40
2023-11-24T11:57:38.514Z,0.33
2023-11-24T12:00:05.861Z,0.37
2023-11-24T12:02:32.537Z,0.33
2023-11-24T12:04:59.244Z,0.60
2023-11-24T12:07:25.717Z,0.80
2023-11-24T12:09:52.368Z,0.40
2023-11-24T12:12:20.586Z,0.47
2023-11-24T12:14:47.232Z,0.50
2023-11-24T12:17:13.826Z,0.50
2023-11-24T12:19:41.799Z,0.70
2023-11-24T12:22:10.520Z,0.40
2023-11-24T12:24:37.467Z,0.53
2023-11-24T12:27:04.172Z,0.50
2023-11-24T12:29:30.804Z,1.30
2023-11-24T12:31:57.525Z,0.83
2023-11-24T12:34:25.247Z,3.30
2023-11-24T12:36:55.156Z,3.90
2023-11-24T12:39:25.575Z,3.77
2023-11-24T12:41:55.368Z,4.20
2023-11-24T12:44:21.834Z,5.43
2023-11-24T12:46:48.433Z,5.07
2023-11-24T12:49:14.991Z,4.27
2023-11-24T12:51:41.587Z,5.20
2023-11-24T12:54:08.235Z,4.93
2023-11-24T12:56:34.666Z,4.80
2023-11-24T12:59:01.129Z,5.00
2023-11-24T13:01:27.634Z,5.03
2023-11-24T13:03:54.195Z,4.87
2023-11-24T13:06:20.844Z,5.03
2023-11-24T13:08:47.757Z,4.50
2023-11-24T13:11:14.296Z,5.77
2023-11-24T13:13:40.816Z,5.50
2023-11-24T13:16:07.624Z,4.53
2023-11-24T13:18:34.139Z,4.40
2023-11-24T13:21:00.613Z,4.30
2023-11-24T13:23:27.061Z,4.67
2023-11-24T13:25:53.479Z,4.70
2023-11-24T13:28:19.931Z,4.20
2023-11-24T13:30:46.495Z,4.70
2023-11-24T13:33:13.044Z,4.37
2023-11-24T13:35:39.553Z,4.20
2023-11-24T13:38:05.987Z,4.10
2023-11-24T13:40:32.803Z,4.40
2023-11-24T13:42:59.408Z,4.13
2023-11-24T13:45:25.875Z,5.20
2023-11-24T13:47:52.350Z,4.53
2023-11-24T13:50:18.887Z,4.50
2023-11-24T13:52:45.362Z,3.90
2023-11-24T13:55:11.965Z,4.30
2023-11-24T13:57:38.439Z,3.97
2023-11-24T14:00:06.128Z,4.93
2023-11-24T14:02:32.700Z,5.00
2023-11-24T14:04:59.223Z,5.50
2023-11-24T14:07:25.700Z,6.10
2023-11-24T14:09:52.136Z,5.90
2023-11-24T14:12:18.608Z,6.93
2023-11-24T14:14:45.134Z,7.33
2023-11-24T14:17:11.659Z,7.43
2023-11-24T14:19:38.088Z,6.10
2023-11-24T14:22:04.594Z,5.73
2023-11-24T14:24:31.085Z,5.30
2023-11-24T14:26:57.640Z,5.17
2023-11-24T14:29:24.163Z,4.93
2023-11-24T14:31:50.601Z,5.70
2023-11-24T14:34:20.005Z,6.00
2023-11-24T14:36:46.933Z,7.47
2023-11-24T14:39:13.462Z,8.60
2023-11-24T14:41:39.872Z,8.57
2023-11-24T14:44:06.425Z,7.43
2023-11-24T14:46:33.136Z,9.17
2023-11-24T14:48:59.806Z,9.03
2023-11-24T14:51:26.581Z,9.07
2023-11-24T14:53:53.386Z,8.50
2023-11-24T14:56:19.986Z,9.40
2023-11-24T14:58:46.944Z,9.47
2023-11-24T15:01:17.216Z,9.57
2023-11-24T15:03:44.339Z,9.43
2023-11-24T15:06:11.654Z,9.70
2023-11-24T15:08:38.134Z,9.50
2023-11-24T15:11:04.566Z,9.17
2023-11-24T15:13:31.036Z,9.00
2023-11-24T15:15:57.543Z,9.87
2023-11-24T15:18:24.003Z,9.80
2023-11-24T15:20:50.455Z,9.57
2023-11-24T15:23:16.943Z,9.80
2023-11-24T15:25:43.951Z,9.20
2023-11-24T15:28:10.466Z,10.10
2023-11-24T15:30:37.037Z,8.80
2023-11-24T15:33:03.548Z,10.13
2023-11-24T15:35:30.059Z,9.90
2023-11-24T15:37:56.580Z,8.40
2023-11-24T15:40:23.039Z,8.60
2023-11-24T15:42:49.514Z,9.17
2023-11-24T15:45:16.067Z,11.33
2023-11-24T15:47:42.515Z,11.90
2023-11-24T15:50:09.433Z,10.10
2023-11-24T15:52:35.855Z,12.20
2023-11-24T15:55:02.575Z,10.77
2023-11-24T15:57:29.077Z,10.50
2023-11-24T15:59:55.497Z,12.30
2023-11-24T16:02:22.299Z,11.80
2023-11-24T16:04:48.801Z,14.70
2023-11-24T16:07:15.328Z,13.80
2023-11-24T16:09:41.815Z,13.57
2023-11-24T16:12:09.039Z,12.17
2023-11-24T16:14:36.467Z,17.10
2023-11-24T16:17:03.453Z,17.23
2023-11-24T16:19:30.192Z,13.30
2023-11-24T16:21:56.689Z,13.40
2023-11-24T16:24:23.192Z,14.43
2023-11-24T16:26:49.919Z,11.57
2023-11-24T16:29:16.743Z,11.90
2023-11-24T16:31:44.026Z,13.20
2023-11-24T16:34:10.591Z,13.53
2023-11-24T16:36:37.048Z,15.45
2023-11-24T16:39:03.520Z,15.23
2023-11-24T16:41:29.999Z,14.80
2023-11-24T16:43:56.482Z,19.30
2023-11-24T16:46:23.154Z,17.10
2023-11-24T16:48:49.711Z,17.30
2023-11-24T16:51:16.178Z,15.77
2023-11-24T16:53:42.773Z,16.27
2023-11-24T16:56:09.220Z,15.97
2023-11-24T16:58:35.765Z,16.30
2023-11-24T17:01:02.289Z,19.23
2023-11-24T17:03:31.010Z,48.47
2023-11-24T17:05:58.141Z,23.13
2023-11-24T17:08:24.595Z,21.80
2023-11-24T17:10:51.098Z,18.80
2023-11-24T17:13:17.613Z,13.20
2023-11-24T17:15:44.205Z,12.40
2023-11-24T17:18:10.732Z,15.70
2023-11-24T17:20:37.270Z,13.27
2023-11-24T17:23:03.734Z,12.33
2023-11-24T17:25:36.599Z,11.13
2023-11-24T17:28:04.093Z,11.90
2023-11-24T17:30:30.556Z,12.73
2023-11-24T17:32:57.122Z,12.40
2023-11-24T17:35:23.694Z,12.33
2023-11-24T17:37:50.169Z,12.07
2023-11-24T17:40:16.822Z,13.30
2023-11-24T17:42:43.570Z,12.60
2023-11-24T17:45:10.630Z,13.13
2023-11-24T17:47:37.178Z,14.30
2023-11-24T17:50:03.934Z,16.30
2023-11-24T17:52:30.438Z,16.10
2023-11-24T17:54:56.945Z,16.90
2023-11-24T17:57:23.479Z,16.83
2023-11-24T17:59:49.953Z,15.80
2023-11-24T18:02:16.607Z,15.40
2023-11-24T18:04:43.162Z,17.87
2023-11-24T18:07:09.732Z,16.80
2023-11-24T18:09:36.208Z,16.10
2023-11-24T18:12:02.767Z,15.57
2023-11-24T18:14:29.235Z,15.00
2023-11-24T18:16:55.781Z,14.70
2023-11-24T18:19:22.335Z,14.57
2023-11-24T18:21:48.849Z,16.27
2023-11-24T18:24:15.309Z,15.80
2023-11-24T18:26:41.818Z,18.53
2023-11-24T18:29:08.317Z,18.23
2023-11-24T18:31:34.852Z,18.57
2023-11-24T18:34:01.394Z,16.40
2023-11-24T18:36:27.933Z,16.90
2023-11-24T18:38:54.412Z,14.90
2023-11-24T18:41:20.856Z,17.10
2023-11-24T18:43:47.364Z,16.40
2023-11-24T18:46:14.002Z,16.30
2023-11-24T18:48:40.604Z,19.73
2023-11-24T18:51:07.162Z,21.20
2023-11-24T18:53:33.713Z,22.37
2023-11-24T18:56:00.248Z,22.13
2023-11-24T18:58:26.847Z,20.30
2023-11-24T19:00:53.360Z,18.20
2023-11-24T19:03:19.842Z,12.20
2023-11-24T19:05:46.286Z,14.40
2023-11-24T19:08:12.790Z,14.10
2023-11-24T19:10:39.254Z,15.60
2023-11-24T19:13:05.708Z,14.57
2023-11-24T19:15:32.225Z,12.70
2023-11-24T19:17:58.772Z,12.23
2023-11-24T19:20:25.265Z,13.80
2023-11-24T19:22:51.750Z,14.60
2023-11-24T19:25:18.242Z,15.33
2023-11-24T19:27:44.732Z,14.80
2023-11-24T19:30:11.628Z,15.07
2023-11-24T19:32:38.376Z,14.37
2023-11-24T19:35:07.356Z,16.93
2023-11-24T19:37:34.754Z,16.73
2023-11-24T19:40:01.300Z,18.47
2023-11-24T19:42:27.821Z,17.03
2023-11-24T19:44:54.295Z,17.20
2023-11-24T19:47:20.726Z,18.60
2023-11-24T19:49:47.253Z,18.77
2023-11-24T19:52:13.749Z,18.80
2023-11-24T19:54:40.224Z,18.70
2023-11-24T19:57:06.675Z,20.77
2023-11-24T19:59:33.142Z,17.37
2023-11-24T20:01:59.859Z,17.20
2023-11-24T20:04:28.095Z,17.70
2023-11-24T20:06:54.769Z,18.47
2023-11-24T20:09:21.302Z,18.70
2023-11-24T20:11:47.862Z,17.30
2023-11-24T20:14:14.383Z,15.80
2023-11-24T20:16:40.897Z,16.60
2023-11-24T20:19:07.458Z,15.77
2023-11-24T20:21:33.925Z,15.43
2023-11-24T20:24:00.414Z,15.03
2023-11-24T20:26:26.966Z,16.50
2023-11-24T20:28:53.493Z,15.17
2023-11-24T20:31:20.085Z,15.77
2023-11-24T20:33:47.697Z,15.30
2023-11-24T20:36:16.567Z,16.23
2023-11-24T20:38:43.273Z,16.20
2023-11-24T20:41:09.773Z,16.27
2023-11-24T20:43:36.335Z,14.53
2023-11-24T20:46:02.987Z,14.57
2023-11-24T20:48:29.558Z,14.03
2023-11-24T20:50:56.032Z,14.10
2023-11-24T20:53:22.531Z,13.00
2023-11-24T20:55:49.004Z,16.13
2023-11-24T20:58:15.449Z,13.33
2023-11-24T21:00:41.957Z,15.37
2023-11-24T21:03:08.450Z,16.07
2023-11-24T21:05:35.276Z,16.90
2023-11-24T21:08:01.808Z,9.53
2023-11-24T21:10:28.372Z,5.73
2023-11-24T21:12:54.837Z,4.47
2023-11-24T21:15:21.339Z,2.90
2023-11-24T21:17:47.920Z,1.20
2023-11-24T21:20:14.415Z,0.70
2023-11-24T21:22:41.014Z,0.73
2023-11-24T21:25:07.860Z,0.90
2023-11-24T21:27:34.385Z,0.67
2023-11-24T21:30:01.055Z,0.60
2023-11-24T21:32:27.616Z,0.70
2023-11-24T21:34:54.125Z,0.40
2023-11-24T21:37:20.666Z,0.53
2023-11-24T21:39:47.143Z,0.40
2023-11-24T21:42:13.600Z,0.60
2023-11-24T21:44:40.059Z,0.40
2023-11-24T21:47:06.644Z,0.40
2023-11-24T21:49:36.579Z,0.30
2023-11-24T21:52:03.075Z,0.30
2023-11-24T21:54:29.554Z,0.30
2023-11-24T21:56:55.997Z,0.30
2023-11-24T21:59:22.474Z,0.40
2023-11-24T22:01:49.109Z,0.30
2023-11-24T22:04:15.725Z,0.60
2023-11-24T22:06:42.180Z,0.50
2023-11-24T22:09:08.710Z,0.50
2023-11-24T22:11:35.176Z,0.60
2023-11-24T22:14:01.667Z,0.53
2023-11-24T22:16:28.313Z,0.60
2023-11-24T22:18:54.814Z,0.40
2023-11-24T22:21:21.461Z,0.47
2023-11-24T22:23:48.135Z,0.40
2023-11-24T22:26:21.171Z,0.40
2023-11-24T22:28:49.741Z,0.40
2023-11-24T22:31:16.582Z,0.30
2023-11-24T22:33:43.563Z,0.50
2023-11-24T22:36:10.307Z,0.30
2023-11-24T22:38:36.798Z,0.40
2023-11-24T22:41:03.460Z,0.30
2023-11-24T22:43:29.972Z,0.40
2023-11-24T22:45:56.492Z,0.30
2023-11-24T22:48:22.926Z,0.30
2023-11-24T22:50:49.410Z,0.30
2023-11-24T22:53:15.850Z,0.30
2023-11-24T22:55:42.349Z,0.30
2023-11-24T22:58:08.941Z,0.30
2023-11-24T23:00:35.379Z,0.30
2023-11-24T23:03:01.998Z,0.90
2023-11-24T23:05:28.550Z,0.30
2023-11-24T23:07:55.036Z,0.30
2023-11-24T23:10:21.589Z,0.30
2023-11-24T23:12:51.453Z,0.30
2023-11-24T23:15:18.114Z,0.20
2023-11-24T23:17:45.149Z,0.30
2023-11-24T23:20:12.122Z,0.60
2023-11-24T23:22:38.634Z,0.40
2023-11-24T23:25:05.444Z,0.30
2023-11-24T23:27:31.934Z,0.40
2023-11-24T23:29:58.415Z,0.30
2023-11-24T23:32:24.952Z,0.40
2023-11-24T23:34:51.753Z,0.30
2023-11-24T23:37:18.247Z,0.30
2023-11-24T23:39:44.692Z,0.40
2023-11-24T23:42:11.274Z,0.30
2023-11-24T23:44:37.752Z,0.30
2023-11-24T23:47:04.914Z,0.40
2023-11-24T23:49:31.494Z,0.30
2023-11-24T23:51:57.964Z,0.30
2023-11-24T23:54:24.428Z,0.30
2023-11-24T23:56:50.923Z,0.40
2023-11-24T23:59:17.434Z,0.40
